Time,TemperatureF,DewpointF,PressureIn,WindDirection,WindDirectionDegrees,WindSpeedMPH,WindSpeedGustMPH,Humidity,HourlyPrecipIn,Conditions,Clouds,dailyrainin,SoftwareType,DateUTC
2013-04-22 00:01:00,45.0,31.0,-100.00,WSW,237,5.0,8.0,57,-99.99,,,-99.99,,2013-04-22 07:01:00,
2013-04-22 00:11:00,45.0,31.0,-100.00,WSW,237,5.0,8.0,57,-99.99,,,-99.99,,2013-04-22 07:11:00,
2013-04-22 01:01:00,46.0,29.0,-100.00,NW,313,10.0,15.0,51,-99.99,,,-99.99,,2013-04-22 08:01:00,
2013-04-22 01:11:00,46.0,29.0,-100.00,NW,313,10.0,15.0,51,-99.99,,,-99.99,,2013-04-22 08:11:00,
2013-04-22 02:01:00,45.0,28.0,-100.00,WNW,302,9.0,14.0,51,-99.99,,,-99.99,,2013-04-22 09:01:00,
2013-04-22 02:11:00,45.0,28.0,-100.00,WNW,302,9.0,14.0,51,-99.99,,,-99.99,,2013-04-22 09:11:00,
2013-04-22 03:03:00,45.0,25.0,-100.00,North,352,9.0,15.0,45,-99.99,,,-99.99,,2013-04-22 10:03:00,
2013-04-22 03:12:00,45.0,25.0,-100.00,North,352,9.0,15.0,45,-99.99,,,-99.99,,2013-04-22 10:12:00,
2013-04-22 04:02:00,42.0,26.0,-100.00,North,11,5.0,8.0,52,-99.99,,,-99.99,,2013-04-22 11:02:00,
2013-04-22 04:12:00,42.0,26.0,-100.00,North,11,5.0,8.0,52,-99.99,,,-99.99,,2013-04-22 11:12:00,
2013-04-22 05:01:00,40.0,26.0,-100.00,West,281,3.0,7.0,57,-99.99,,,-99.99,,2013-04-22 12:01:00,
2013-04-22 05:12:00,40.0,26.0,-100.00,West,281,3.0,7.0,57,-99.99,,,-99.99,,2013-04-22 12:12:00,
2013-04-22 06:01:00,37.0,26.0,-100.00,NNW,341,5.0,7.0,64,-99.99,,,-99.99,,2013-04-22 13:01:00,
2013-04-22 06:11:00,37.0,26.0,-100.00,NNW,341,5.0,7.0,64,-99.99,,,-99.99,,2013-04-22 13:11:00,
2013-04-22 07:02:00,32.0,26.0,-100.00,NE,50,3.0,3.0,78,-99.99,,,-99.99,,2013-04-22 14:02:00,
2013-04-22 07:11:00,32.0,26.0,-100.00,NE,50,3.0,3.0,78,-99.99,,,-99.99,,2013-04-22 14:11:00,
2013-04-22 08:01:00,41.0,30.0,-100.00,North,3,3.0,5.0,64,-99.99,,,-99.99,,2013-04-22 15:01:00,
2013-04-22 08:11:00,41.0,30.0,-100.00,North,3,3.0,5.0,64,-99.99,,,-99.99,,2013-04-22 15:11:00,
2013-04-22 09:02:00,46.0,29.0,-100.00,NE,35,9.0,13.0,51,-99.99,,,-99.99,,2013-04-22 16:02:00,
2013-04-22 09:12:00,46.0,29.0,-100.00,NE,35,9.0,13.0,51,-99.99,,,-99.99,,2013-04-22 16:12:00,
2013-04-22 11:01:00,52.0,24.0,-100.00,NE,51,12.0,20.0,33,-99.99,,,-99.99,,2013-04-22 18:01:00,
2013-04-22 11:12:00,52.0,24.0,-100.00,NE,51,12.0,20.0,33,-99.99,,,-99.99,,2013-04-22 18:12:00,
2013-04-22 12:01:00,54.0,23.0,-100.00,NNE,33,12.0,20.0,29,-99.99,,,-99.99,,2013-04-22 19:01:00,
2013-04-22 12:11:00,54.0,23.0,-100.00,NNE,33,12.0,20.0,29,-99.99,,,-99.99,,2013-04-22 19:11:00,
2013-04-22 13:02:00,57.0,20.0,-100.00,NE,52,9.0,16.0,23,-99.99,,,-99.99,,2013-04-22 20:02:00,
2013-04-22 13:11:00,57.0,20.0,-100.00,NE,52,9.0,16.0,23,-99.99,,,-99.99,,2013-04-22 20:11:00,
2013-04-22 15:02:00,59.0,16.0,-100.00,North,10,7.0,12.0,18,-99.99,,,-99.99,,2013-04-22 22:02:00,
2013-04-22 15:12:00,59.0,16.0,-100.00,North,10,7.0,12.0,18,-99.99,,,-99.99,,2013-04-22 22:12:00,
2013-04-22 16:02:00,61.0,17.0,-100.00,NE,44,7.0,15.0,17,-99.99,,,-99.99,,2013-04-22 23:02:00,
2013-04-22 16:11:00,61.0,17.0,-100.00,NE,44,7.0,15.0,17,-99.99,,,-99.99,,2013-04-22 23:11:00,
2013-04-22 17:02:00,60.0,18.0,-100.00,NNW,335,3.0,15.0,19,-99.99,,,-99.99,,2013-04-23 00:02:00,
2013-04-22 17:12:00,60.0,18.0,-100.00,NNW,335,3.0,15.0,19,-99.99,,,-99.99,,2013-04-23 00:12:00,
2013-04-22 18:01:00,61.0,17.0,-100.00,NNE,30,7.0,13.0,17,-99.99,,,-99.99,,2013-04-23 01:01:00,
2013-04-22 18:11:00,61.0,17.0,-100.00,NNE,30,7.0,13.0,17,-99.99,,,-99.99,,2013-04-23 01:11:00,
2013-04-22 19:01:00,60.0,16.0,-100.00,NNE,22,5.0,9.0,17,-99.99,,,-99.99,,2013-04-23 02:01:00,
2013-04-22 19:12:00,60.0,16.0,-100.00,NNE,22,5.0,9.0,17,-99.99,,,-99.99,,2013-04-23 02:12:00,
2013-04-22 20:01:00,58.0,16.0,-100.00,East,81,2.0,5.0,19,-99.99,,,-99.99,,2013-04-23 03:01:00,
2013-04-22 20:11:00,58.0,16.0,-100.00,East,81,2.0,5.0,19,-99.99,,,-99.99,,2013-04-23 03:11:00,
2013-04-22 21:03:00,49.0,18.0,-100.00,SE,143,1.0,3.0,28,-99.99,,,-99.99,,2013-04-23 04:03:00,
2013-04-22 21:12:00,49.0,18.0,-100.00,SE,143,1.0,3.0,28,-99.99,,,-99.99,,2013-04-23 04:12:00,
2013-04-22 22:02:00,46.0,15.0,-100.00,South,176,7.0,8.0,28,-99.99,,,-99.99,,2013-04-23 05:02:00,
2013-04-22 22:12:00,46.0,15.0,-100.00,South,176,7.0,8.0,28,-99.99,,,-99.99,,2013-04-23 05:12:00,
2013-04-22 23:01:00,42.0,17.0,-100.00,SW,233,7.0,8.0,36,-99.99,,,-99.99,,2013-04-23 06:01:00,
2013-04-22 23:12:00,42.0,17.0,-100.00,SW,233,7.0,8.0,36,-99.99,,,-99.99,,2013-04-23 06:12:00,